createdAt,value
2019-05-25T00:01:14.078Z,99.90
2019-05-25T00:03:44.896Z,99.90
2019-05-25T00:06:15.721Z,99.90
2019-05-25T00:08:46.152Z,99.90
2019-05-25T00:11:16.611Z,99.90
2019-05-25T00:13:47.050Z,99.90
2019-05-25T00:16:17.435Z,99.90
2019-05-25T00:18:48.857Z,99.90
2019-05-25T00:21:19.281Z,99.90
2019-05-25T00:23:49.724Z,99.90
2019-05-25T00:26:20.194Z,99.90
2019-05-25T00:28:50.625Z,99.90
2019-05-25T00:31:21.091Z,99.90
2019-05-25T00:33:51.611Z,99.90
2019-05-25T00:36:23.308Z,99.90
2019-05-25T00:38:53.756Z,99.90
2019-05-25T00:41:24.182Z,99.90
2019-05-25T00:43:54.684Z,99.90
2019-05-25T00:46:25.080Z,99.90
2019-05-25T00:48:55.512Z,99.70
2019-05-25T00:51:25.917Z,99.70
2019-05-25T00:53:56.412Z,99.00
2019-05-25T00:56:26.800Z,98.90
2019-05-25T00:58:57.235Z,98.50
2019-05-25T01:01:27.622Z,98.70
2019-05-25T01:03:58.053Z,98.60
2019-05-25T01:06:28.450Z,98.70
2019-05-25T01:08:58.874Z,98.50
2019-05-25T01:11:29.277Z,98.40
2019-05-25T01:13:59.806Z,98.20
2019-05-25T01:16:30.250Z,98.20
2019-05-25T01:19:00.678Z,98.10
2019-05-25T01:21:31.183Z,98.20
2019-05-25T01:24:01.617Z,98.00
2019-05-25T01:26:32.008Z,98.20
2019-05-25T01:29:02.430Z,98.40
2019-05-25T01:31:32.828Z,98.40
2019-05-25T01:34:03.254Z,97.90
2019-05-25T01:36:33.649Z,98.10
2019-05-25T01:39:05.726Z,98.00
2019-05-25T01:41:37.126Z,97.70
2019-05-25T01:44:07.556Z,97.60
2019-05-25T01:46:38.912Z,97.70
2019-05-25T01:49:09.353Z,97.20
2019-05-25T01:51:39.812Z,97.10
2019-05-25T01:54:10.315Z,97.70
2019-05-25T01:56:40.713Z,97.70
2019-05-25T01:59:11.260Z,97.50
2019-05-25T02:01:41.655Z,97.10
2019-05-25T02:04:12.095Z,97.00
2019-05-25T02:06:42.549Z,96.60
2019-05-25T02:09:12.990Z,96.40
2019-05-25T02:11:43.385Z,96.10
2019-05-25T02:14:13.814Z,96.10
2019-05-25T02:16:44.212Z,96.50
2019-05-25T02:19:14.909Z,96.30
2019-05-25T02:21:45.728Z,96.70
2019-05-25T02:24:16.163Z,97.50
2019-05-25T02:26:48.390Z,98.10
2019-05-25T02:29:18.944Z,98.50
2019-05-25T02:31:49.340Z,98.70
2019-05-25T02:34:19.784Z,98.30
2019-05-25T02:36:50.462Z,98.70
2019-05-25T02:39:20.901Z,98.90
2019-05-25T02:41:51.305Z,99.40
2019-05-25T02:44:21.733Z,99.60
2019-05-25T02:46:53.221Z,99.90
2019-05-25T02:49:23.652Z,99.90
2019-05-25T02:51:54.088Z,99.90
2019-05-25T02:54:24.474Z,99.90
2019-05-25T02:56:54.911Z,99.90
2019-05-25T02:59:25.298Z,99.90
2019-05-25T03:01:55.875Z,99.90
2019-05-25T03:04:26.268Z,99.90
2019-05-25T03:06:56.842Z,99.90
2019-05-25T03:09:28.948Z,99.90
2019-05-25T03:12:00.548Z,99.90
2019-05-25T03:14:30.949Z,99.90
2019-05-25T03:17:01.382Z,99.90
2019-05-25T03:19:31.843Z,99.90
2019-05-25T03:22:02.275Z,99.90
2019-05-25T03:24:32.706Z,99.90
2019-05-25T03:27:03.145Z,99.90
2019-05-25T03:29:33.534Z,99.90
2019-05-25T03:32:03.967Z,99.60
2019-05-25T03:34:34.442Z,99.30
2019-05-25T03:37:04.958Z,99.70
2019-05-25T03:39:35.408Z,99.70
2019-05-25T03:42:05.916Z,99.90
2019-05-25T03:44:36.389Z,99.90
2019-05-25T03:47:06.891Z,99.90
2019-05-25T03:49:38.256Z,99.70
2019-05-25T03:52:08.690Z,99.30
2019-05-25T03:54:39.083Z,99.00
2019-05-25T03:57:09.514Z,98.90
2019-05-25T03:59:39.900Z,98.70
2019-05-25T04:02:10.331Z,98.40
2019-05-25T04:04:40.750Z,98.00
2019-05-25T04:07:11.186Z,98.40
2019-05-25T04:09:41.576Z,97.80
2019-05-25T04:12:12.021Z,98.20
2019-05-25T04:14:42.470Z,98.00
2019-05-25T04:17:13.950Z,97.90
2019-05-25T04:19:44.357Z,98.20
2019-05-25T04:22:14.796Z,98.30
2019-05-25T04:24:45.592Z,98.00
2019-05-25T04:27:16.037Z,98.20
2019-05-25T04:29:46.437Z,97.80
2019-05-25T04:32:16.868Z,97.30
2019-05-25T04:34:47.472Z,96.50
2019-05-25T04:37:17.919Z,96.50
2019-05-25T04:39:48.322Z,96.70
2019-05-25T04:42:18.757Z,96.20
2019-05-25T04:44:49.193Z,96.20
2019-05-25T04:47:27.003Z,96.40
2019-05-25T04:49:52.153Z,96.20
2019-05-25T04:52:22.601Z,95.60
2019-05-25T04:54:52.998Z,95.30
2019-05-25T04:57:23.804Z,95.00
2019-05-25T04:59:54.195Z,94.80
2019-05-25T05:02:24.641Z,94.90
2019-05-25T05:04:55.170Z,94.20
2019-05-25T05:07:25.614Z,93.80
2019-05-25T05:10:02.821Z,93.90
2019-05-25T05:12:28.141Z,93.80
2019-05-25T05:14:58.533Z,94.00
2019-05-25T05:17:28.972Z,93.80
2019-05-25T05:19:59.457Z,93.40
2019-05-25T05:22:29.948Z,93.60
2019-05-25T05:25:00.386Z,93.50
2019-05-25T05:27:30.814Z,93.80
2019-05-25T05:30:02.176Z,93.30
2019-05-25T05:32:32.693Z,93.40
2019-05-25T05:35:04.073Z,93.60
2019-05-25T05:37:34.965Z,93.90
2019-05-25T05:40:08.253Z,94.10
2019-05-25T05:42:39.977Z,93.60
2019-05-25T05:45:10.901Z,93.90
2019-05-25T05:47:43.974Z,93.00
2019-05-25T05:50:14.673Z,92.80
2019-05-25T05:52:49.162Z,92.50
2019-05-25T05:55:24.258Z,92.60
2019-05-25T05:57:54.697Z,92.40
2019-05-25T06:00:25.164Z,91.20
2019-05-25T06:02:55.594Z,90.40
2019-05-25T06:05:26.154Z,90.10
2019-05-25T06:07:56.590Z,88.50
2019-05-25T06:10:26.995Z,87.50
2019-05-25T06:12:57.430Z,86.40
2019-05-25T06:15:27.824Z,85.70
2019-05-25T06:17:59.226Z,85.30
2019-05-25T06:20:29.626Z,84.10
2019-05-25T06:23:03.017Z,84.10
2019-05-25T06:25:34.372Z,81.40
2019-05-25T06:28:04.893Z,81.10
2019-05-25T06:30:36.067Z,82.90
2019-05-25T06:33:08.661Z,81.40
2019-05-25T06:35:39.066Z,81.90
2019-05-25T06:38:09.558Z,77.60
2019-05-25T06:40:41.953Z,75.20
2019-05-25T06:43:12.391Z,76.80
2019-05-25T06:45:43.626Z,76.50
2019-05-25T06:48:15.878Z,76.10
2019-05-25T06:50:46.667Z,79.30
2019-05-25T06:53:17.116Z,78.70
2019-05-25T06:55:47.515Z,79.50
2019-05-25T06:58:18.159Z,80.50
2019-05-25T07:00:48.615Z,81.10
2019-05-25T07:03:19.061Z,80.50
2019-05-25T07:05:49.590Z,80.00
2019-05-25T07:08:20.023Z,80.50
2019-05-25T07:10:50.579Z,79.20
2019-05-25T07:13:21.009Z,79.30
2019-05-25T07:15:51.398Z,79.10
2019-05-25T07:18:21.834Z,76.80
2019-05-25T07:20:52.219Z,75.70
2019-05-25T07:23:22.653Z,74.90
2019-05-25T07:25:53.080Z,74.70
2019-05-25T07:28:23.647Z,77.10
2019-05-25T07:30:54.073Z,77.20
2019-05-25T07:33:24.477Z,77.60
2019-05-25T07:35:54.908Z,76.20
2019-05-25T07:38:25.302Z,77.50
2019-05-25T07:40:55.733Z,75.00
2019-05-25T07:43:26.122Z,76.80
2019-05-25T07:45:56.558Z,77.30
2019-05-25T07:48:26.942Z,77.80
2019-05-25T07:50:57.368Z,75.80
2019-05-25T07:53:27.783Z,74.20
2019-05-25T07:55:58.215Z,72.80
2019-05-25T07:58:28.606Z,74.60
2019-05-25T08:00:59.072Z,70.00
2019-05-25T08:03:29.604Z,69.70
2019-05-25T08:06:00.103Z,74.20
2019-05-25T08:08:32.055Z,73.10
2019-05-25T08:11:03.386Z,69.50
2019-05-25T08:13:33.786Z,71.30
2019-05-25T08:16:04.213Z,74.30
2019-05-25T08:18:34.604Z,73.00
2019-05-25T08:21:05.030Z,75.60
2019-05-25T08:23:35.457Z,74.30
2019-05-25T08:26:05.881Z,70.40
2019-05-25T08:28:36.277Z,71.30
2019-05-25T08:31:06.713Z,67.60
2019-05-25T08:33:37.159Z,67.20
2019-05-25T08:36:07.656Z,69.10
2019-05-25T08:38:38.052Z,68.10
2019-05-25T08:41:08.492Z,69.60
2019-05-25T08:43:38.874Z,66.40
2019-05-25T08:46:09.308Z,67.40
2019-05-25T08:48:39.767Z,66.30
2019-05-25T08:51:10.201Z,62.30
2019-05-25T08:53:42.248Z,61.80
2019-05-25T08:56:12.920Z,59.70
2019-05-25T08:58:48.512Z,64.70
2019-05-25T09:01:15.443Z,60.90
2019-05-25T09:03:46.038Z,61.60
2019-05-25T09:06:16.474Z,58.00
2019-05-25T09:08:46.856Z,59.20
2019-05-25T09:11:17.359Z,60.60
2019-05-25T09:13:47.769Z,56.20
2019-05-25T09:16:18.363Z,61.70
2019-05-25T09:18:48.762Z,58.70
2019-05-25T09:21:19.197Z,58.00
2019-05-25T09:23:49.620Z,57.10
2019-05-25T09:26:20.051Z,57.70
2019-05-25T09:29:03.599Z,59.60
2019-05-25T09:31:22.576Z,61.40
2019-05-25T09:33:52.974Z,62.10
2019-05-25T09:36:23.407Z,61.60
2019-05-25T09:38:54.768Z,63.60
2019-05-25T09:41:25.209Z,60.00
2019-05-25T09:43:55.668Z,60.00
2019-05-25T09:46:26.090Z,56.50
2019-05-25T09:48:56.478Z,56.20
2019-05-25T09:51:26.909Z,55.50
2019-05-25T09:53:57.299Z,56.60
2019-05-25T09:56:27.728Z,58.50
2019-05-25T09:58:58.122Z,60.60
2019-05-25T10:01:28.621Z,65.70
2019-05-25T10:03:59.005Z,60.50
2019-05-25T10:06:29.600Z,56.60
2019-05-25T10:08:59.986Z,58.80
2019-05-25T10:11:30.419Z,55.70
2019-05-25T10:14:00.810Z,58.70
2019-05-25T10:16:31.245Z,56.20
2019-05-25T10:19:01.628Z,55.20
2019-05-25T10:21:32.052Z,54.80
2019-05-25T10:24:02.484Z,52.80
2019-05-25T10:26:32.920Z,54.00
2019-05-25T10:29:03.304Z,54.70
2019-05-25T10:31:33.749Z,57.00
2019-05-25T10:34:04.344Z,58.60
2019-05-25T10:36:34.787Z,59.50
2019-05-25T10:39:08.447Z,60.70
2019-05-25T10:41:38.872Z,60.30
2019-05-25T10:44:09.252Z,61.40
2019-05-25T10:46:39.686Z,61.50
2019-05-25T10:49:11.835Z,61.40
2019-05-25T10:51:42.433Z,59.50
2019-05-25T10:54:12.860Z,59.30
2019-05-25T10:56:43.306Z,58.50
2019-05-25T10:59:13.707Z,60.30
2019-05-25T11:01:44.135Z,59.10
2019-05-25T11:04:14.542Z,58.30
2019-05-25T11:06:45.082Z,59.90
2019-05-25T11:09:17.698Z,62.00
2019-05-25T11:11:48.486Z,61.00
2019-05-25T11:14:18.870Z,57.70
2019-05-25T11:16:51.033Z,54.70
2019-05-25T11:19:24.141Z,55.70
2019-05-25T11:21:53.685Z,52.40
2019-05-25T11:24:24.177Z,51.60
2019-05-25T11:26:54.804Z,52.90
2019-05-25T11:29:25.313Z,54.00
2019-05-25T11:32:00.071Z,55.50
2019-05-25T11:34:27.831Z,54.00
2019-05-25T11:36:58.217Z,54.00
2019-05-25T11:39:28.655Z,53.90
2019-05-25T11:41:59.044Z,54.00
2019-05-25T11:44:29.486Z,52.90
2019-05-25T11:46:59.880Z,53.10
2019-05-25T11:49:30.311Z,54.20
2019-05-25T11:52:00.719Z,54.40
2019-05-25T11:54:31.206Z,54.50
2019-05-25T11:57:02.577Z,54.30
2019-05-25T11:59:32.998Z,54.50
2019-05-25T12:02:03.463Z,53.50
2019-05-25T12:04:33.977Z,54.90
2019-05-25T12:07:04.431Z,54.20
2019-05-25T12:09:34.870Z,52.50
2019-05-25T12:12:05.260Z,51.30
2019-05-25T12:14:35.694Z,49.50
2019-05-25T12:17:06.079Z,48.20
2019-05-25T12:19:36.502Z,49.20
2019-05-25T12:22:06.966Z,49.70
2019-05-25T12:24:38.354Z,48.50
2019-05-25T12:27:09.721Z,48.10
2019-05-25T12:29:40.154Z,52.30
2019-05-25T12:32:10.538Z,50.60
2019-05-25T12:34:41.109Z,49.30
2019-05-25T12:37:11.504Z,50.80
2019-05-25T12:39:41.995Z,51.00
2019-05-25T12:42:12.383Z,49.30
2019-05-25T12:44:42.888Z,47.20
2019-05-25T12:47:13.278Z,47.90
2019-05-25T12:49:50.453Z,47.20
2019-05-25T12:52:17.094Z,47.90
2019-05-25T12:54:47.526Z,48.00
2019-05-25T12:57:17.945Z,50.30
2019-05-25T12:59:48.629Z,49.90
2019-05-25T13:02:19.018Z,49.70
2019-05-25T13:04:49.468Z,48.30
2019-05-25T13:07:19.933Z,49.90
2019-05-25T13:09:50.365Z,48.60
2019-05-25T13:12:20.754Z,50.30
2019-05-25T13:14:51.200Z,50.40
2019-05-25T13:17:21.586Z,51.20
2019-05-25T13:19:52.024Z,51.10
2019-05-25T13:22:22.764Z,50.50
2019-05-25T13:24:53.249Z,48.50
2019-05-25T13:27:23.750Z,49.60
2019-05-25T13:29:54.179Z,49.20
2019-05-25T13:32:24.564Z,48.50
2019-05-25T13:34:54.996Z,49.20
2019-05-25T13:37:25.386Z,47.70
2019-05-25T13:39:55.834Z,48.90
2019-05-25T13:42:26.226Z,49.20
2019-05-25T13:44:56.672Z,48.70
2019-05-25T13:47:27.060Z,50.50
2019-05-25T13:49:57.497Z,50.40
2019-05-25T13:52:27.900Z,49.50
2019-05-25T13:54:58.340Z,50.20
2019-05-25T13:57:28.729Z,49.80
2019-05-25T13:59:59.161Z,51.70
2019-05-25T14:02:29.551Z,49.90
2019-05-25T14:04:59.989Z,49.90
2019-05-25T14:07:30.377Z,51.10
2019-05-25T14:10:00.897Z,50.50
2019-05-25T14:12:31.349Z,49.30
2019-05-25T14:15:01.833Z,49.00
2019-05-25T14:17:32.334Z,49.60
2019-05-25T14:20:03.442Z,52.10
2019-05-25T14:22:35.301Z,49.50
2019-05-25T14:25:08.111Z,49.90
2019-05-25T14:27:38.793Z,49.00
2019-05-25T14:30:09.859Z,48.90
2019-05-25T14:32:40.319Z,50.60
2019-05-25T14:35:10.888Z,49.70
2019-05-25T14:37:41.313Z,49.40
2019-05-25T14:40:12.893Z,50.40
2019-05-25T14:42:43.352Z,51.20
2019-05-25T14:45:14.520Z,53.60
2019-05-25T14:47:44.914Z,53.10
2019-05-25T14:50:15.787Z,54.00
2019-05-25T14:52:46.252Z,51.50
2019-05-25T14:55:16.908Z,51.20
2019-05-25T14:57:47.368Z,51.70
2019-05-25T15:00:19.154Z,52.40
2019-05-25T15:02:49.646Z,51.60
2019-05-25T15:05:20.036Z,51.50
2019-05-25T15:07:50.530Z,52.10
2019-05-25T15:10:22.008Z,51.90
2019-05-25T15:12:52.512Z,50.30
2019-05-25T15:15:22.909Z,50.70
2019-05-25T15:17:53.350Z,51.00
2019-05-25T15:20:23.816Z,50.60
2019-05-25T15:22:54.318Z,52.20
2019-05-25T15:25:24.709Z,52.50
2019-05-25T15:27:55.139Z,54.90
2019-05-25T15:30:25.725Z,54.40
2019-05-25T15:32:56.280Z,55.20
2019-05-25T15:35:26.678Z,54.30
2019-05-25T15:37:57.114Z,54.00
2019-05-25T15:40:27.507Z,52.50
2019-05-25T15:42:57.946Z,55.10
2019-05-25T15:45:28.358Z,56.50
2019-05-25T15:47:58.858Z,55.20
2019-05-25T15:50:29.554Z,56.80
2019-05-25T15:52:59.980Z,56.60
2019-05-25T15:55:30.372Z,56.40
2019-05-25T15:58:00.802Z,57.20
2019-05-25T16:00:49.060Z,55.40
2019-05-25T16:03:20.810Z,54.70
2019-05-25T16:05:52.078Z,55.10
2019-05-25T16:08:23.032Z,53.80
2019-05-25T16:10:53.458Z,53.70
2019-05-25T16:13:23.966Z,55.10
2019-05-25T16:15:54.355Z,55.80
2019-05-25T16:18:24.812Z,57.90
2019-05-25T16:20:55.200Z,56.90
2019-05-25T16:23:25.638Z,57.70
2019-05-25T16:25:56.154Z,58.70
2019-05-25T16:28:26.602Z,60.00
2019-05-25T16:30:56.996Z,60.00
2019-05-25T16:33:27.498Z,59.80
2019-05-25T16:35:58.157Z,62.30
2019-05-25T16:38:28.867Z,62.00
2019-05-25T16:40:59.262Z,62.20
2019-05-25T16:43:29.692Z,63.90
2019-05-25T16:46:00.077Z,65.70
2019-05-25T16:48:30.512Z,65.70
2019-05-25T16:51:00.981Z,65.80
2019-05-25T16:53:31.415Z,68.10
2019-05-25T16:56:01.808Z,68.20
2019-05-25T16:58:32.239Z,68.30
2019-05-25T17:01:02.654Z,67.60
2019-05-25T17:03:33.154Z,68.30
2019-05-25T17:06:03.547Z,66.30
2019-05-25T17:08:34.008Z,68.70
2019-05-25T17:11:04.410Z,70.40
2019-05-25T17:13:34.898Z,71.40
2019-05-25T17:16:05.363Z,71.90
2019-05-25T17:18:35.800Z,73.10
2019-05-25T17:21:06.188Z,73.10
2019-05-25T17:23:36.611Z,74.00
2019-05-25T17:26:07.211Z,75.40
2019-05-25T17:28:37.723Z,76.50
2019-05-25T17:31:08.107Z,75.90
2019-05-25T17:33:45.925Z,75.90
2019-05-25T17:36:13.039Z,77.10
2019-05-25T17:38:43.869Z,76.20
2019-05-25T17:41:14.398Z,77.40
2019-05-25T17:43:45.287Z,78.10
2019-05-25T17:46:15.680Z,77.70
2019-05-25T17:48:46.118Z,78.60
2019-05-25T17:51:16.513Z,78.50
2019-05-25T17:53:46.941Z,78.30
2019-05-25T17:56:17.342Z,78.10
2019-05-25T17:58:47.758Z,78.70
2019-05-25T18:01:18.150Z,79.30
2019-05-25T18:04:04.945Z,79.20
2019-05-25T18:06:20.676Z,80.70
2019-05-25T18:08:51.101Z,81.10
2019-05-25T18:11:21.563Z,80.40
2019-05-25T18:13:52.063Z,81.10
2019-05-25T18:16:22.520Z,81.00
2019-05-25T18:18:52.948Z,81.30
2019-05-25T18:21:23.337Z,81.60
2019-05-25T18:23:53.779Z,81.40
2019-05-25T18:26:24.206Z,81.90
2019-05-25T18:28:54.634Z,83.20
2019-05-25T18:31:25.029Z,83.50
2019-05-25T18:33:55.455Z,82.70
2019-05-25T18:36:25.922Z,83.20
2019-05-25T18:38:56.353Z,83.00
2019-05-25T18:41:26.741Z,83.30
2019-05-25T18:43:57.214Z,82.50
2019-05-25T18:46:27.686Z,83.00
2019-05-25T18:48:58.114Z,83.80
2019-05-25T18:51:28.513Z,83.50
2019-05-25T18:53:59.016Z,84.30
2019-05-25T18:56:30.452Z,85.70
2019-05-25T18:59:00.897Z,84.40
2019-05-25T19:01:31.389Z,85.20
2019-05-25T19:04:02.125Z,85.10
2019-05-25T19:06:33.038Z,85.20
2019-05-25T19:09:03.613Z,85.60
2019-05-25T19:11:35.914Z,86.20
2019-05-25T19:14:09.296Z,86.10
2019-05-25T19:16:40.666Z,87.20
2019-05-25T19:19:14.295Z,88.50
2019-05-25T19:21:44.704Z,88.00
2019-05-25T19:24:15.894Z,87.30
2019-05-25T19:26:48.267Z,88.60
2019-05-25T19:29:19.657Z,89.10
2019-05-25T19:31:53.408Z,88.70
2019-05-25T19:34:27.296Z,88.50
2019-05-25T19:37:03.518Z,89.70
2019-05-25T19:39:31.203Z,89.50
2019-05-25T19:42:01.686Z,89.90
2019-05-25T19:44:34.197Z,89.80
2019-05-25T19:47:05.629Z,90.30
2019-05-25T19:49:36.107Z,90.00
2019-05-25T19:52:06.596Z,89.90
2019-05-25T19:54:37.078Z,90.30
2019-05-25T19:57:07.847Z,90.50
2019-05-25T19:59:39.588Z,90.70
2019-05-25T20:02:10.142Z,90.50
2019-05-25T20:04:40.675Z,90.60
2019-05-25T20:07:11.573Z,91.20
2019-05-25T20:09:46.994Z,91.00
2019-05-25T20:12:19.614Z,91.10
2019-05-25T20:14:53.565Z,91.20
2019-05-25T20:17:24.175Z,91.50
2019-05-25T20:19:55.176Z,92.10
2019-05-25T20:22:25.648Z,92.50
2019-05-25T20:24:56.391Z,92.50
2019-05-25T20:27:26.864Z,92.90
2019-05-25T20:30:02.373Z,92.80
2019-05-25T20:32:31.214Z,93.30
2019-05-25T20:35:04.686Z,93.60
2019-05-25T20:37:37.211Z,93.80
2019-05-25T20:40:09.407Z,94.00
2019-05-25T20:42:40.180Z,93.80
2019-05-25T20:45:11.095Z,93.80
2019-05-25T20:47:41.622Z,94.00
2019-05-25T20:50:14.226Z,94.10
2019-05-25T20:52:46.739Z,94.10
2019-05-25T20:55:23.014Z,94.60
2019-05-25T20:57:53.518Z,94.90
2019-05-25T21:00:27.315Z,95.20
2019-05-25T21:03:05.905Z,95.30
2019-05-25T21:05:49.751Z,96.30
2019-05-25T21:08:14.378Z,96.30
2019-05-25T21:10:47.625Z,96.50
2019-05-25T21:13:22.715Z,96.70
2019-05-25T21:15:53.111Z,96.30
2019-05-25T21:18:26.088Z,96.30
2019-05-25T21:20:58.146Z,96.80
2019-05-25T21:23:28.580Z,97.10
2019-05-25T21:25:59.053Z,97.10
2019-05-25T21:28:34.332Z,97.10
2019-05-25T21:31:04.796Z,97.30
2019-05-25T21:33:38.576Z,97.30
2019-05-25T21:36:11.470Z,97.30
2019-05-25T21:38:41.914Z,97.70
2019-05-25T21:41:12.546Z,97.50
2019-05-25T21:43:43.065Z,97.40
2019-05-25T21:46:14.742Z,97.50
2019-05-25T21:48:45.246Z,97.70
2019-05-25T21:51:15.639Z,97.60
2019-05-25T21:53:46.110Z,97.80
2019-05-25T21:56:16.505Z,98.00
2019-05-25T21:58:46.951Z,98.10
2019-05-25T22:01:17.687Z,97.80
2019-05-25T22:03:48.209Z,98.10
2019-05-25T22:06:24.358Z,97.60
2019-05-25T22:08:50.731Z,97.30
2019-05-25T22:11:21.129Z,97.10
2019-05-25T22:13:53.140Z,97.60
2019-05-25T22:16:23.541Z,97.40
2019-05-25T22:18:53.984Z,97.40
2019-05-25T22:21:24.376Z,97.70
2019-05-25T22:23:54.830Z,97.90
2019-05-25T22:26:25.796Z,97.40
2019-05-25T22:28:56.289Z,98.10
2019-05-25T22:31:26.718Z,98.20
2019-05-25T22:33:59.361Z,98.30
2019-05-25T22:36:39.697Z,98.70
2019-05-25T22:39:01.394Z,98.80
2019-05-25T22:41:33.262Z,98.90
2019-05-25T22:44:04.776Z,99.20
2019-05-25T22:46:35.167Z,99.60
2019-05-25T22:49:05.608Z,99.80
2019-05-25T22:51:36.002Z,99.90
2019-05-25T22:54:06.432Z,99.90
2019-05-25T22:56:36.846Z,99.90
2019-05-25T22:59:07.347Z,99.90
2019-05-25T23:01:37.763Z,99.90
2019-05-25T23:04:08.275Z,99.90
2019-05-25T23:06:38.676Z,99.90
2019-05-25T23:09:09.112Z,99.90
2019-05-25T23:11:39.502Z,99.90
2019-05-25T23:14:10.120Z,99.90
2019-05-25T23:16:40.568Z,99.90
2019-05-25T23:19:10.989Z,99.90
2019-05-25T23:21:41.375Z,99.90
2019-05-25T23:24:11.813Z,99.90
2019-05-25T23:26:42.200Z,99.90
2019-05-25T23:29:12.666Z,99.90
2019-05-25T23:31:43.060Z,99.90
2019-05-25T23:34:13.490Z,99.90
2019-05-25T23:36:43.883Z,99.90
2019-05-25T23:39:14.314Z,99.90
2019-05-25T23:41:44.771Z,99.90
2019-05-25T23:44:15.259Z,99.90
2019-05-25T23:46:45.645Z,99.90
2019-05-25T23:49:16.074Z,99.90
2019-05-25T23:51:46.467Z,99.90
2019-05-25T23:54:16.900Z,99.90
2019-05-25T23:56:47.451Z,99.90
2019-05-25T23:59:17.883Z,99.90
